Monterey, IN (46960)

12:27 EDT le 23 octobre 2014 (GMT -0400)
400 west | Change Station
CLOSE
Current Station
Stations météorologiques personnelles
Location: Rochester, IN
Altitude: 745 ft
Stations météo à proximité

Alt. 745 ft 41.09 °N, 86.32 °W | Updated 0 second ago

Ciel dégagé
Ciel dégagé
54.1 ° F
Paraît 54.1 ° F
N
3.0
Vent Variable Vent de SSO
Gusts 5.0 mph

Aujourd'hui
Haut(e) -- | Bas -- ° F
--% Risque de précip.
Hier
Haut(e) -- | Bas -- ° F
Precip. -- pouce
8:06 AM 6:53 PM
Lune descendante, 0% visible
Pression 30.22 pouce
Visibilité 10.0 Miles terrestres
Nuages Ciel dégagé
Point de rosée 46 ° F
Humidité 73%
Précipitations 0.00 pouce
Profondeur de la couche neigeuse Non disponible.
UV 0.0 sur 12
Pollen 1.00 sur 12
Qualité de l'air Non disponible.
Flu Activity Sporadic
METAR KOXI 231615Z AUTO 23004KT 10SM CLR 11/05 A3022 RMK AO1 T01110051

More Conditions Fewer Conditions

Pression 30.22 pouce
Visibilité 10.0 Miles terrestres
Nuages Ciel dégagé
Point de rosée 46 ° F
Humidité 73%
Précipitations 0.00 pouce
Profondeur de la couche neigeuse Non disponible.
UV 0.0 sur 12
Pollen 1.00 sur 12
Qualité de l'air Non disponible.
Flu Activity Sporadic
METAR KOXI 231615Z AUTO 23004KT 10SM CLR 11/05 A3022 RMK AO1 T01110051

More Conditions Fewer Conditions

10-Day Weather Forecast

Almanac

Astronomie

Oct. 23, 2014 Lever Coucher
Temps réel 08:06 EDT 18:53 EDT
Crépuscule civil 07:38 EDT 19:21 EDT
Crépuscule nautique 07:06 EDT 19:53 EDT
Crépuscule astronomique 06:34 EDT 20:25 EDT
Lune 07:45 EDT 18:54 EDT
Durée de lumière visible 11h 43m
Longueur du jour
10h 46m
Tomorrow will be 2m 33s shorter.
Lune descendante, 0% of the Moon is Illuminated
Aujourd'hui
Lune descendante
Oct 23
Nouveau
Oct 30
Premier quartier
Nov 6
Pleine lune
Nov 14
Dernier quartier

Extrêmes aujourd'hui

State Highs State Lows

Community

WunderPhotos

Upload Photos

1,764,297 Photos téléchargées !

Nearby

Épaisseur de neige

Station Depth Altitude
Pas de nouvelles chutes de neige

Activité sismique

Ville Distance Mag. Time & Date
No recent earthquake activity has been reported nearby.
Minimum magnitude displayed is 2.5.

Températures des eaux côtières

Lieu Température
Aucun rapport de station

Stations météo à proximité